Terminal Aerodrome Forecast
Issued by NWS Pittsburgh, PA

Current Version | Previous Version | Text Only | Print | Product List | Glossary Off
Versions: 1 2 3 4 5 6 7 8 9 10 11 12 13 14 15 16 17 18 19 20 21 22 23 24 25 26 27 28 29 30 31 32 33 34 35 36 37 38 39 40

000
FTUS41 KPBZ 271400 AAB
TAFPIT
TAF AMD
KPIT 271404Z 2714/2818 24005KT 6SM BR BKN007
     FM271500 22008KT P6SM SCT012 BKN035
      TEMPO 2715/2716 BKN012
     FM271700 21008KT P6SM VCSH BKN035
      TEMPO 2720/2723 3SM -TSRA OVC025CB
     FM280800 25006KT P6SM VCSH BKN020=

USA.gov is the U.S. government's official web portal to all federal, state and local government web resources and services.